sensor_id;sensor_type;location;lat;lon;timestamp;pressure;altitude;pressure_sealevel;temperature
61703;BMP280;47622;47.726;3.298;2022-07-25T00:00:23;98828.25;;;20.07
61703;BMP280;47622;47.726;3.298;2022-07-25T00:02:49;98827.09;;;20.08
61703;BMP280;47622;47.726;3.298;2022-07-25T00:05:14;98828.25;;;20.04
61703;BMP280;47622;47.726;3.298;2022-07-25T00:07:40;98827.84;;;20.02
61703;BMP280;47622;47.726;3.298;2022-07-25T00:10:06;98813.75;;;19.94
61703;BMP280;47622;47.726;3.298;2022-07-25T00:12:34;98808.81;;;20.00
61703;BMP280;47622;47.726;3.298;2022-07-25T00:15:00;98801.94;;;19.91
61703;BMP280;47622;47.726;3.298;2022-07-25T00:17:25;98800.44;;;19.94
61703;BMP280;47622;47.726;3.298;2022-07-25T00:19:51;98799.69;;;19.93
61703;BMP280;47622;47.726;3.298;2022-07-25T00:22:17;98789.03;;;19.93
61703;BMP280;47622;47.726;3.298;2022-07-25T00:24:43;98786.75;;;19.95
61703;BMP280;47622;47.726;3.298;2022-07-25T00:27:09;98791.28;;;19.91
61703;BMP280;47622;47.726;3.298;2022-07-25T00:29:34;98785.22;;;19.87
61703;BMP280;47622;47.726;3.298;2022-07-25T00:32:00;98775.25;;;19.81
61703;BMP280;47622;47.726;3.298;2022-07-25T00:34:26;98786.72;;;19.85
61703;BMP280;47622;47.726;3.298;2022-07-25T00:36:52;98783.19;;;19.70
61703;BMP280;47622;47.726;3.298;2022-07-25T00:39:17;98783.97;;;19.67
61703;BMP280;47622;47.726;3.298;2022-07-25T00:41:43;98791.56;;;19.69
61703;BMP280;47622;47.726;3.298;2022-07-25T00:44:20;98783.88;;;19.60
61703;BMP280;47622;47.726;3.298;2022-07-25T00:46:45;98765.97;;;19.46
61703;BMP280;47622;47.726;3.298;2022-07-25T00:49:11;98777.38;;;19.47
61703;BMP280;47622;47.726;3.298;2022-07-25T00:51:37;98779.63;;;19.45
61703;BMP280;47622;47.726;3.298;2022-07-25T00:54:02;98772.03;;;19.47
61703;BMP280;47622;47.726;3.298;2022-07-25T00:56:28;98770.47;;;19.39
61703;BMP280;47622;47.726;3.298;2022-07-25T00:58:54;98767.03;;;19.35
61703;BMP280;47622;47.726;3.298;2022-07-25T01:01:20;98771.94;;;19.33
61703;BMP280;47622;47.726;3.298;2022-07-25T01:03:47;98756.69;;;19.22
61703;BMP280;47622;47.726;3.298;2022-07-25T01:06:13;98768.81;;;19.23
61703;BMP280;47622;47.726;3.298;2022-07-25T01:08:38;98759.69;;;19.17
61703;BMP280;47622;47.726;3.298;2022-07-25T01:11:04;98764.25;;;19.13
61703;BMP280;47622;47.726;3.298;2022-07-25T01:13:33;98744.38;;;19.00
61703;BMP280;47622;47.726;3.298;2022-07-25T01:15:59;98754.38;;;19.14
61703;BMP280;47622;47.726;3.298;2022-07-25T01:18:25;98749.06;;;19.17
61703;BMP280;47622;47.726;3.298;2022-07-25T01:20:51;98754.75;;;19.16
61703;BMP280;47622;47.726;3.298;2022-07-25T01:23:17;98756.69;;;19.22
61703;BMP280;47622;47.726;3.298;2022-07-25T01:25:43;98742.59;;;19.18
61703;BMP280;47622;47.726;3.298;2022-07-25T01:28:09;98752.47;;;19.18
61703;BMP280;47622;47.726;3.298;2022-07-25T01:30:34;98739.09;;;19.04
61703;BMP280;47622;47.726;3.298;2022-07-25T01:33:00;98736.78;;;19.02
61703;BMP280;47622;47.726;3.298;2022-07-25T01:35:26;98734.53;;;19.04
61703;BMP280;47622;47.726;3.298;2022-07-25T01:37:51;98747.50;;;19.09
61703;BMP280;47622;47.726;3.298;2022-07-25T01:40:17;98740.31;;;19.13
61703;BMP280;47622;47.726;3.298;2022-07-25T01:42:43;98737.66;;;19.13
61703;BMP280;47622;47.726;3.298;2022-07-25T01:45:11;98733.03;;;19.10
61703;BMP280;47622;47.726;3.298;2022-07-25T01:47:37;98729.94;;;19.01
61703;BMP280;47622;47.726;3.298;2022-07-25T01:50:03;98734.88;;;18.99
61703;BMP280;47622;47.726;3.298;2022-07-25T01:52:29;98730.25;;;18.96
61703;BMP280;47622;47.726;3.298;2022-07-25T01:54:55;98737.53;;;18.99
61703;BMP280;47622;47.726;3.298;2022-07-25T01:57:21;98728.38;;;18.93
61703;BMP280;47622;47.726;3.298;2022-07-25T01:59:47;98724.63;;;18.98
61703;BMP280;47622;47.726;3.298;2022-07-25T02:02:12;98731.09;;;19.00
61703;BMP280;47622;47.726;3.298;2022-07-25T02:04:38;98730.69;;;18.98
61703;BMP280;47622;47.726;3.298;2022-07-25T02:07:04;98719.28;;;18.94
61703;BMP280;47622;47.726;3.298;2022-07-25T02:09:30;98716.94;;;18.89
61703;BMP280;47622;47.726;3.298;2022-07-25T02:11:55;98726.91;;;18.99
61703;BMP280;47622;47.726;3.298;2022-07-25T02:14:21;98729.13;;;18.97
61703;BMP280;47622;47.726;3.298;2022-07-25T02:16:47;98725.72;;;18.97
61703;BMP280;47622;47.726;3.298;2022-07-25T02:19:13;98731.47;;;18.99
61703;BMP280;47622;47.726;3.298;2022-07-25T02:21:39;98737.09;;;18.93
61703;BMP280;47622;47.726;3.298;2022-07-25T02:24:05;98727.56;;;18.89
61703;BMP280;47622;47.726;3.298;2022-07-25T02:26:31;98724.56;;;18.90
61703;BMP280;47622;47.726;3.298;2022-07-25T02:29:00;98720.78;;;18.95
61703;BMP280;47622;47.726;3.298;2022-07-25T02:31:26;98722.28;;;18.96
61703;BMP280;47622;47.726;3.298;2022-07-25T02:33:52;98722.03;;;19.12
61703;BMP280;47622;47.726;3.298;2022-07-25T02:36:17;98726.94;;;19.06
61703;BMP280;47622;47.726;3.298;2022-07-25T02:38:44;98708.25;;;18.92
61703;BMP280;47622;47.726;3.298;2022-07-25T02:41:10;98716.97;;;18.96
61703;BMP280;47622;47.726;3.298;2022-07-25T02:43:36;98715.06;;;18.89
61703;BMP280;47622;47.726;3.298;2022-07-25T02:46:02;98711.22;;;18.87
61703;BMP280;47622;47.726;3.298;2022-07-25T02:48:28;98712.34;;;18.82
61703;BMP280;47622;47.726;3.298;2022-07-25T02:50:53;98707.81;;;18.86
61703;BMP280;47622;47.726;3.298;2022-07-25T02:53:19;98703.97;;;18.77
61703;BMP280;47622;47.726;3.298;2022-07-25T02:55:46;98705.41;;;18.71
61703;BMP280;47622;47.726;3.298;2022-07-25T02:58:11;98711.84;;;18.66
61703;BMP280;47622;47.726;3.298;2022-07-25T03:00:37;98714.50;;;18.70
61703;BMP280;47622;47.726;3.298;2022-07-25T03:03:03;98700.03;;;18.64
61703;BMP280;47622;47.726;3.298;2022-07-25T03:05:30;98710.72;;;18.71
61703;BMP280;47622;47.726;3.298;2022-07-25T03:07:56;98712.25;;;18.72
61703;BMP280;47622;47.726;3.298;2022-07-25T03:10:21;98700.78;;;18.61
61703;BMP280;47622;47.726;3.298;2022-07-25T03:12:47;98695.88;;;18.63
61703;BMP280;47622;47.726;3.298;2022-07-25T03:15:13;98699.22;;;18.59
61703;BMP280;47622;47.726;3.298;2022-07-25T03:17:40;98704.59;;;18.63
61703;BMP280;47622;47.726;3.298;2022-07-25T03:20:07;98694.78;;;18.71
61703;BMP280;47622;47.726;3.298;2022-07-25T03:22:33;98691.78;;;18.76
61703;BMP280;47622;47.726;3.298;2022-07-25T03:25:00;98687.59;;;18.75
61703;BMP280;47622;47.726;3.298;2022-07-25T03:27:26;98681.94;;;18.80
61703;BMP280;47622;47.726;3.298;2022-07-25T03:29:52;98688.78;;;18.81
61703;BMP280;47622;47.726;3.298;2022-07-25T03:32:19;98692.25;;;18.85
61703;BMP280;47622;47.726;3.298;2022-07-25T03:34:46;98676.66;;;18.83
61703;BMP280;47622;47.726;3.298;2022-07-25T03:37:11;98692.31;;;18.92
61703;BMP280;47622;47.726;3.298;2022-07-25T03:39:37;98683.53;;;18.88
61703;BMP280;47622;47.726;3.298;2022-07-25T03:42:03;98689.59;;;18.85
61703;BMP280;47622;47.726;3.298;2022-07-25T03:44:28;98686.50;;;18.79
61703;BMP280;47622;47.726;3.298;2022-07-25T03:46:54;98679.25;;;18.73
61703;BMP280;47622;47.726;3.298;2022-07-25T03:49:20;98679.28;;;18.76
61703;BMP280;47622;47.726;3.298;2022-07-25T03:51:45;98675.06;;;18.72
61703;BMP280;47622;47.726;3.298;2022-07-25T03:54:11;98677.06;;;18.82
61703;BMP280;47622;47.726;3.298;2022-07-25T03:56:45;98670.94;;;18.78
61703;BMP280;47622;47.726;3.298;2022-07-25T03:59:14;98674.31;;;18.75
61703;BMP280;47622;47.726;3.298;2022-07-25T04:01:42;98676.63;;;18.80
61703;BMP280;47622;47.726;3.298;2022-07-25T04:04:08;98677.44;;;18.84
61703;BMP280;47622;47.726;3.298;2022-07-25T04:06:34;98672.13;;;18.84
61703;BMP280;47622;47.726;3.298;2022-07-25T04:09:00;98680.47;;;18.86
61703;BMP280;47622;47.726;3.298;2022-07-25T04:11:26;98675.13;;;18.82
61703;BMP280;47622;47.726;3.298;2022-07-25T04:13:53;98683.59;;;18.95
61703;BMP280;47622;47.726;3.298;2022-07-25T04:16:19;98674.09;;;18.94
61703;BMP280;47622;47.726;3.298;2022-07-25T04:18:45;98672.56;;;18.93
61703;BMP280;47622;47.726;3.298;2022-07-25T04:21:11;98687.50;;;19.08
61703;BMP280;47622;47.726;3.298;2022-07-25T04:23:36;98685.16;;;19.07
61703;BMP280;47622;47.726;3.298;2022-07-25T04:26:02;98682.16;;;19.12
61703;BMP280;47622;47.726;3.298;2022-07-25T04:28:28;98683.75;;;19.23
61703;BMP280;47622;47.726;3.298;2022-07-25T04:30:54;98684.56;;;19.27
61703;BMP280;47622;47.726;3.298;2022-07-25T04:33:21;98692.56;;;19.38
61703;BMP280;47622;47.726;3.298;2022-07-25T04:35:47;98682.31;;;19.37
61703;BMP280;47622;47.726;3.298;2022-07-25T04:38:13;98682.38;;;19.47
61703;BMP280;47622;47.726;3.298;2022-07-25T04:40:39;98683.97;;;19.66
61703;BMP280;47622;47.726;3.298;2022-07-25T04:43:04;98686.28;;;19.71
61703;BMP280;47622;47.726;3.298;2022-07-25T04:45:31;98682.47;;;19.72
61703;BMP280;47622;47.726;3.298;2022-07-25T04:47:57;98690.88;;;19.78
61703;BMP280;47622;47.726;3.298;2022-07-25T04:50:23;98672.63;;;19.83
61703;BMP280;47622;47.726;3.298;2022-07-25T04:52:48;98685.22;;;19.97
61703;BMP280;47622;47.726;3.298;2022-07-25T04:55:14;98674.19;;;19.99
61703;BMP280;47622;47.726;3.298;2022-07-25T04:57:41;98669.66;;;20.06
61703;BMP280;47622;47.726;3.298;2022-07-25T05:00:09;98690.22;;;20.20
61703;BMP280;47622;47.726;3.298;2022-07-25T05:02:35;98692.91;;;20.31
61703;BMP280;47622;47.726;3.298;2022-07-25T05:05:02;98688.69;;;20.29
61703;BMP280;47622;47.726;3.298;2022-07-25T05:07:28;98702.00;;;20.33
61703;BMP280;47622;47.726;3.298;2022-07-25T05:09:54;98705.84;;;20.43
61703;BMP280;47622;47.726;3.298;2022-07-25T05:12:20;98707.75;;;20.46
61703;BMP280;47622;47.726;3.298;2022-07-25T05:14:46;98713.47;;;20.44
61703;BMP280;47622;47.726;3.298;2022-07-25T05:17:11;98713.09;;;20.56
61703;BMP280;47622;47.726;3.298;2022-07-25T05:19:37;98696.34;;;20.52
61703;BMP280;47622;47.726;3.298;2022-07-25T05:22:03;98711.53;;;20.55
61703;BMP280;47622;47.726;3.298;2022-07-25T05:24:38;98705.84;;;20.60
61703;BMP280;47622;47.726;3.298;2022-07-25T05:27:04;98711.56;;;20.62
61703;BMP280;47622;47.726;3.298;2022-07-25T05:29:30;98716.91;;;20.70
61703;BMP280;47622;47.726;3.298;2022-07-25T05:31:57;98721.44;;;20.80
61703;BMP280;47622;47.726;3.298;2022-07-25T05:34:24;98718.00;;;20.97
61703;BMP280;47622;47.726;3.298;2022-07-25T05:36:50;98720.63;;;21.25
61703;BMP280;47622;47.726;3.298;2022-07-25T05:39:15;98717.50;;;21.45
61703;BMP280;47622;47.726;3.298;2022-07-25T05:41:41;98725.09;;;21.64
61703;BMP280;47622;47.726;3.298;2022-07-25T05:44:07;98718.50;;;21.83
61703;BMP280;47622;47.726;3.298;2022-07-25T05:46:33;98719.13;;;22.12
61703;BMP280;47622;47.726;3.298;2022-07-25T05:48:59;98738.03;;;22.35
61703;BMP280;47622;47.726;3.298;2022-07-25T05:51:26;98739.50;;;22.43
61703;BMP280;47622;47.726;3.298;2022-07-25T05:53:53;98746.75;;;22.46
61703;BMP280;47622;47.726;3.298;2022-07-25T05:56:19;98749.03;;;22.48
61703;BMP280;47622;47.726;3.298;2022-07-25T05:58:48;98748.63;;;22.49
61703;BMP280;47622;47.726;3.298;2022-07-25T06:01:18;98756.97;;;22.55
61703;BMP280;47622;47.726;3.298;2022-07-25T06:03:44;98755.72;;;22.66
61703;BMP280;47622;47.726;3.298;2022-07-25T06:06:09;98761.72;;;22.85
61703;BMP280;47622;47.726;3.298;2022-07-25T06:08:37;98760.13;;;22.91
61703;BMP280;47622;47.726;3.298;2022-07-25T06:11:06;98773.84;;;22.93
61703;BMP280;47622;47.726;3.298;2022-07-25T06:13:32;98775.09;;;22.85
61703;BMP280;47622;47.726;3.298;2022-07-25T06:15:58;98769.09;;;22.66
61703;BMP280;47622;47.726;3.298;2022-07-25T06:18:27;98769.53;;;22.61
61703;BMP280;47622;47.726;3.298;2022-07-25T06:20:55;98786.31;;;22.69
61703;BMP280;47622;47.726;3.298;2022-07-25T06:23:23;98783.47;;;22.35
61703;BMP280;47622;47.726;3.298;2022-07-25T06:25:51;98795.69;;;22.32
61703;BMP280;47622;47.726;3.298;2022-07-25T06:28:17;98798.03;;;22.27
61703;BMP280;47622;47.726;3.298;2022-07-25T06:30:44;98796.59;;;22.12
61703;BMP280;47622;47.726;3.298;2022-07-25T06:33:11;98806.84;;;22.17
61703;BMP280;47622;47.726;3.298;2022-07-25T06:35:36;98807.22;;;22.22
61703;BMP280;47622;47.726;3.298;2022-07-25T06:38:02;98804.22;;;22.10
61703;BMP280;47622;47.726;3.298;2022-07-25T06:40:28;98811.06;;;22.18
61703;BMP280;47622;47.726;3.298;2022-07-25T06:42:54;98815.44;;;22.53
61703;BMP280;47622;47.726;3.298;2022-07-25T06:45:23;98805.25;;;23.26
61703;BMP280;47622;47.726;3.298;2022-07-25T06:47:49;98811.53;;;24.11
61703;BMP280;47622;47.726;3.298;2022-07-25T06:50:19;98805.13;;;23.74
61703;BMP280;47622;47.726;3.298;2022-07-25T06:52:45;98817.56;;;23.58
61703;BMP280;47622;47.726;3.298;2022-07-25T06:55:13;98814.19;;;23.13
61703;BMP280;47622;47.726;3.298;2022-07-25T06:57:40;98817.50;;;22.83
61703;BMP280;47622;47.726;3.298;2022-07-25T07:00:09;98825.19;;;22.81
61703;BMP280;47622;47.726;3.298;2022-07-25T07:02:50;98833.28;;;23.18
61703;BMP280;47622;47.726;3.298;2022-07-25T07:05:22;98838.41;;;22.98
61703;BMP280;47622;47.726;3.298;2022-07-25T07:07:47;98845.91;;;22.62
61703;BMP280;47622;47.726;3.298;2022-07-25T07:10:13;98857.41;;;22.56
61703;BMP280;47622;47.726;3.298;2022-07-25T07:12:39;98858.56;;;23.10
61703;BMP280;47622;47.726;3.298;2022-07-25T07:15:05;98846.44;;;23.77
61703;BMP280;47622;47.726;3.298;2022-07-25T07:17:31;98871.88;;;24.76
61703;BMP280;47622;47.726;3.298;2022-07-25T07:19:57;98867.69;;;25.81
61703;BMP280;47622;47.726;3.298;2022-07-25T07:22:23;98883.34;;;27.03
61703;BMP280;47622;47.726;3.298;2022-07-25T07:24:49;98875.06;;;28.31
61703;BMP280;47622;47.726;3.298;2022-07-25T07:27:18;98880.78;;;28.21
61703;BMP280;47622;47.726;3.298;2022-07-25T07:29:44;98890.00;;;26.99
61703;BMP280;47622;47.726;3.298;2022-07-25T07:32:10;98900.53;;;26.61
61703;BMP280;47622;47.726;3.298;2022-07-25T07:34:35;98903.22;;;26.44
61703;BMP280;47622;47.726;3.298;2022-07-25T07:37:01;98908.53;;;26.12
61703;BMP280;47622;47.726;3.298;2022-07-25T07:39:27;98907.31;;;25.57
61703;BMP280;47622;47.726;3.298;2022-07-25T07:41:53;98900.00;;;24.91
61703;BMP280;47622;47.726;3.298;2022-07-25T07:44:22;98888.63;;;23.69
61703;BMP280;47622;47.726;3.298;2022-07-25T07:46:50;98908.88;;;25.12
61703;BMP280;47622;47.726;3.298;2022-07-25T07:49:16;98905.72;;;25.60
61703;BMP280;47622;47.726;3.298;2022-07-25T07:51:42;98899.16;;;25.41
61703;BMP280;47622;47.726;3.298;2022-07-25T07:54:08;98894.13;;;26.55
61703;BMP280;47622;47.726;3.298;2022-07-25T07:56:52;98908.81;;;27.44
61703;BMP280;47622;47.726;3.298;2022-07-25T07:59:18;98913.47;;;27.97
61703;BMP280;47622;47.726;3.298;2022-07-25T08:01:44;98911.53;;;28.49
61703;BMP280;47622;47.726;3.298;2022-07-25T08:04:10;98925.88;;;30.51
61703;BMP280;47622;47.726;3.298;2022-07-25T08:06:35;98938.69;;;30.77
61703;BMP280;47622;47.726;3.298;2022-07-25T08:09:02;98933.84;;;31.36
61703;BMP280;47622;47.726;3.298;2022-07-25T08:11:28;98940.88;;;32.03
61703;BMP280;47622;47.726;3.298;2022-07-25T08:13:54;98941.75;;;31.67
61703;BMP280;47622;47.726;3.298;2022-07-25T08:16:20;98938.41;;;31.21
61703;BMP280;47622;47.726;3.298;2022-07-25T08:18:46;98952.81;;;31.96
61703;BMP280;47622;47.726;3.298;2022-07-25T08:21:12;98954.84;;;31.78
61703;BMP280;47622;47.726;3.298;2022-07-25T08:23:42;98972.00;;;33.12
61703;BMP280;47622;47.726;3.298;2022-07-25T08:26:11;98963.91;;;32.08
61703;BMP280;47622;47.726;3.298;2022-07-25T08:28:42;98977.22;;;33.01
61703;BMP280;47622;47.726;3.298;2022-07-25T08:31:08;98977.97;;;32.06
61703;BMP280;47622;47.726;3.298;2022-07-25T08:33:34;99001.25;;;30.61
61703;BMP280;47622;47.726;3.298;2022-07-25T08:36:05;98983.97;;;32.43
61703;BMP280;47622;47.726;3.298;2022-07-25T08:38:32;98977.09;;;32.80
61703;BMP280;47622;47.726;3.298;2022-07-25T08:41:03;98992.50;;;32.27
61703;BMP280;47622;47.726;3.298;2022-07-25T08:43:30;99009.56;;;32.27
61703;BMP280;47622;47.726;3.298;2022-07-25T08:45:59;98996.72;;;33.14
61703;BMP280;47622;47.726;3.298;2022-07-25T08:48:25;99005.75;;;33.35
61703;BMP280;47622;47.726;3.298;2022-07-25T08:50:53;99002.19;;;33.72
61703;BMP280;47622;47.726;3.298;2022-07-25T08:53:22;99004.34;;;33.54
61703;BMP280;47622;47.726;3.298;2022-07-25T08:55:49;99012.38;;;34.07
61703;BMP280;47622;47.726;3.298;2022-07-25T08:58:18;99015.63;;;34.66
61703;BMP280;47622;47.726;3.298;2022-07-25T09:00:57;99026.09;;;33.98
61703;BMP280;47622;47.726;3.298;2022-07-25T09:03:23;99021.53;;;33.74
61703;BMP280;47622;47.726;3.298;2022-07-25T09:05:53;99027.16;;;33.86
61703;BMP280;47622;47.726;3.298;2022-07-25T09:08:31;99032.16;;;34.62
61703;BMP280;47622;47.726;3.298;2022-07-25T09:14:05;99038.31;;;32.91
61703;BMP280;47622;47.726;3.298;2022-07-25T09:16:35;99042.72;;;33.85
61703;BMP280;47622;47.726;3.298;2022-07-25T09:19:08;99051.19;;;33.43
61703;BMP280;47622;47.726;3.298;2022-07-25T09:21:36;99050.63;;;33.68
61703;BMP280;47622;47.726;3.298;2022-07-25T09:24:17;99056.16;;;33.59
61703;BMP280;47622;47.726;3.298;2022-07-25T09:26:49;99059.19;;;33.23
61703;BMP280;47622;47.726;3.298;2022-07-25T09:29:19;99062.59;;;33.47
61703;BMP280;47622;47.726;3.298;2022-07-25T09:31:45;99051.94;;;32.25
61703;BMP280;47622;47.726;3.298;2022-07-25T09:34:11;99066.63;;;32.51
61703;BMP280;47622;47.726;3.298;2022-07-25T09:36:52;99071.00;;;32.07
61703;BMP280;47622;47.726;3.298;2022-07-25T09:39:18;99077.75;;;32.62
61703;BMP280;47622;47.726;3.298;2022-07-25T09:41:44;99067.72;;;30.93
61703;BMP280;47622;47.726;3.298;2022-07-25T09:44:19;99080.75;;;30.06
61703;BMP280;47622;47.726;3.298;2022-07-25T09:46:47;99075.78;;;30.35
61703;BMP280;47622;47.726;3.298;2022-07-25T09:49:16;99062.59;;;30.37
61703;BMP280;47622;47.726;3.298;2022-07-25T09:51:48;99075.28;;;31.07
61703;BMP280;47622;47.726;3.298;2022-07-25T09:54:15;99069.00;;;31.65
61703;BMP280;47622;47.726;3.298;2022-07-25T09:56:42;99072.75;;;31.40
61703;BMP280;47622;47.726;3.298;2022-07-25T09:59:08;99069.88;;;31.62
61703;BMP280;47622;47.726;3.298;2022-07-25T10:01:54;99077.06;;;32.11
61703;BMP280;47622;47.726;3.298;2022-07-25T10:04:50;99074.06;;;31.08
61703;BMP280;47622;47.726;3.298;2022-07-25T10:07:21;99090.56;;;30.12
61703;BMP280;47622;47.726;3.298;2022-07-25T10:09:54;99095.59;;;30.23
61703;BMP280;47622;47.726;3.298;2022-07-25T10:12:22;99086.84;;;30.50
61703;BMP280;47622;47.726;3.298;2022-07-25T10:15:11;99093.56;;;30.14
61703;BMP280;47622;47.726;3.298;2022-07-25T10:17:38;99086.88;;;30.28
61703;BMP280;47622;47.726;3.298;2022-07-25T10:20:08;99087.81;;;31.05
61703;BMP280;47622;47.726;3.298;2022-07-25T10:22:43;99094.88;;;31.66
61703;BMP280;47622;47.726;3.298;2022-07-25T10:25:11;99084.34;;;31.68
61703;BMP280;47622;47.726;3.298;2022-07-25T10:27:41;99099.53;;;32.11
61703;BMP280;47622;47.726;3.298;2022-07-25T10:30:10;99093.97;;;31.78
61703;BMP280;47622;47.726;3.298;2022-07-25T10:33:11;99081.94;;;31.79
61703;BMP280;47622;47.726;3.298;2022-07-25T10:35:38;99099.53;;;31.11
61703;BMP280;47622;47.726;3.298;2022-07-25T10:38:04;99098.25;;;30.45
61703;BMP280;47622;47.726;3.298;2022-07-25T10:40:43;99095.59;;;31.03
61703;BMP280;47622;47.726;3.298;2022-07-25T10:43:16;99097.81;;;30.86
61703;BMP280;47622;47.726;3.298;2022-07-25T10:45:52;99092.34;;;31.81
61703;BMP280;47622;47.726;3.298;2022-07-25T10:48:26;99101.81;;;31.31
61703;BMP280;47622;47.726;3.298;2022-07-25T10:51:24;99094.59;;;31.46
61703;BMP280;47622;47.726;3.298;2022-07-25T10:53:50;99097.66;;;30.50
61703;BMP280;47622;47.726;3.298;2022-07-25T10:56:21;99099.09;;;31.12
61703;BMP280;47622;47.726;3.298;2022-07-25T10:58:50;99109.94;;;31.31
61703;BMP280;47622;47.726;3.298;2022-07-25T11:01:31;99102.13;;;31.24
61703;BMP280;47622;47.726;3.298;2022-07-25T11:04:13;99097.91;;;31.41
61703;BMP280;47622;47.726;3.298;2022-07-25T11:06:42;99086.47;;;31.55
61703;BMP280;47622;47.726;3.298;2022-07-25T11:09:28;99110.25;;;31.24
61703;BMP280;47622;47.726;3.298;2022-07-25T11:12:00;99095.50;;;31.25
61703;BMP280;47622;47.726;3.298;2022-07-25T11:14:33;99105.38;;;31.00
61703;BMP280;47622;47.726;3.298;2022-07-25T11:17:29;99099.81;;;30.95
61703;BMP280;47622;47.726;3.298;2022-07-25T11:20:06;99110.66;;;30.95
61703;BMP280;47622;47.726;3.298;2022-07-25T11:23:06;99110.41;;;30.40
61703;BMP280;47622;47.726;3.298;2022-07-25T11:25:32;99106.66;;;30.37
61703;BMP280;47622;47.726;3.298;2022-07-25T11:28:02;99101.72;;;30.45
61703;BMP280;47622;47.726;3.298;2022-07-25T11:30:29;99107.13;;;30.76
61703;BMP280;47622;47.726;3.298;2022-07-25T11:32:59;99100.84;;;30.48
61703;BMP280;47622;47.726;3.298;2022-07-25T11:35:51;99102.13;;;31.24
61703;BMP280;47622;47.726;3.298;2022-07-25T11:38:17;99088.59;;;31.42
61703;BMP280;47622;47.726;3.298;2022-07-25T11:40:43;99105.28;;;31.13
61703;BMP280;47622;47.726;3.298;2022-07-25T11:43:18;99102.41;;;31.07
61703;BMP280;47622;47.726;3.298;2022-07-25T11:45:55;99106.34;;;31.25
61703;BMP280;47622;47.726;3.298;2022-07-25T11:48:29;99108.59;;;30.68
61703;BMP280;47622;47.726;3.298;2022-07-25T11:51:23;99116.41;;;30.66
61703;BMP280;47622;47.726;3.298;2022-07-25T11:53:50;99095.25;;;30.92
61703;BMP280;47622;47.726;3.298;2022-07-25T11:56:23;99107.47;;;30.56
61703;BMP280;47622;47.726;3.298;2022-07-25T11:59:01;99102.75;;;29.73
61703;BMP280;47622;47.726;3.298;2022-07-25T12:01:39;99100.22;;;29.10
61703;BMP280;47622;47.726;3.298;2022-07-25T12:06:33;99096.22;;;28.89
61703;BMP280;47622;47.726;3.298;2022-07-25T12:09:09;99094.72;;;28.34
61703;BMP280;47622;47.726;3.298;2022-07-25T12:11:35;99098.91;;;28.76
61703;BMP280;47622;47.726;3.298;2022-07-25T12:14:04;99103.00;;;28.68
61703;BMP280;47622;47.726;3.298;2022-07-25T12:16:31;99101.78;;;29.33
61703;BMP280;47622;47.726;3.298;2022-07-25T12:18:57;99102.53;;;29.33
61703;BMP280;47622;47.726;3.298;2022-07-25T12:21:32;99108.03;;;29.77
61703;BMP280;47622;47.726;3.298;2022-07-25T12:24:05;99104.19;;;30.30
61703;BMP280;47622;47.726;3.298;2022-07-25T12:26:33;99108.16;;;29.73
61703;BMP280;47622;47.726;3.298;2022-07-25T12:29:02;99097.81;;;29.59
61703;BMP280;47622;47.726;3.298;2022-07-25T12:31:32;99087.56;;;29.07
61703;BMP280;47622;47.726;3.298;2022-07-25T12:33:58;99095.78;;;29.50
61703;BMP280;47622;47.726;3.298;2022-07-25T12:36:29;99096.63;;;29.60
61703;BMP280;47622;47.726;3.298;2022-07-25T12:38:54;99118.19;;;30.60
61703;BMP280;47622;47.726;3.298;2022-07-25T12:41:21;99111.72;;;30.26
61703;BMP280;47622;47.726;3.298;2022-07-25T12:43:48;99104.94;;;29.66
61703;BMP280;47622;47.726;3.298;2022-07-25T12:46:15;99096.47;;;29.29
61703;BMP280;47622;47.726;3.298;2022-07-25T12:48:50;99101.19;;;29.50
61703;BMP280;47622;47.726;3.298;2022-07-25T12:51:15;99099.97;;;29.17
61703;BMP280;47622;47.726;3.298;2022-07-25T12:53:47;99092.41;;;28.87
61703;BMP280;47622;47.726;3.298;2022-07-25T12:56:14;99095.38;;;29.39
61703;BMP280;47622;47.726;3.298;2022-07-25T12:58:40;99103.19;;;29.93
61703;BMP280;47622;47.726;3.298;2022-07-25T13:01:10;99099.22;;;29.64
61703;BMP280;47622;47.726;3.298;2022-07-25T13:03:38;99099.53;;;29.87
61703;BMP280;47622;47.726;3.298;2022-07-25T13:06:04;99088.03;;;29.96
61703;BMP280;47622;47.726;3.298;2022-07-25T13:08:29;99089.06;;;30.11
61703;BMP280;47622;47.726;3.298;2022-07-25T13:10:55;99083.34;;;29.06
61703;BMP280;47622;47.726;3.298;2022-07-25T13:13:21;99094.66;;;29.61
61703;BMP280;47622;47.726;3.298;2022-07-25T13:15:47;99085.47;;;29.11
61703;BMP280;47622;47.726;3.298;2022-07-25T13:18:13;99088.06;;;29.02
61703;BMP280;47622;47.726;3.298;2022-07-25T13:20:38;99088.75;;;29.53
61703;BMP280;47622;47.726;3.298;2022-07-25T13:23:06;99092.03;;;29.70
61703;BMP280;47622;47.726;3.298;2022-07-25T13:25:32;99081.13;;;29.95
61703;BMP280;47622;47.726;3.298;2022-07-25T13:28:02;99072.06;;;29.54
61703;BMP280;47622;47.726;3.298;2022-07-25T13:30:29;99091.66;;;29.46
61703;BMP280;47622;47.726;3.298;2022-07-25T13:32:54;99072.31;;;29.13
61703;BMP280;47622;47.726;3.298;2022-07-25T13:35:20;99075.94;;;29.88
61703;BMP280;47622;47.726;3.298;2022-07-25T13:37:46;99075.44;;;29.58
61703;BMP280;47622;47.726;3.298;2022-07-25T13:40:12;99067.25;;;30.15
61703;BMP280;47622;47.726;3.298;2022-07-25T13:42:39;99078.72;;;30.90
61703;BMP280;47622;47.726;3.298;2022-07-25T13:45:13;99071.63;;;30.92
61703;BMP280;47622;47.726;3.298;2022-07-25T13:47:43;99079.31;;;31.03
61703;BMP280;47622;47.726;3.298;2022-07-25T13:50:09;99080.47;;;30.34
61703;BMP280;47622;47.726;3.298;2022-07-25T13:52:38;99071.66;;;30.21
61703;BMP280;47622;47.726;3.298;2022-07-25T13:55:07;99066.81;;;29.04
61703;BMP280;47622;47.726;3.298;2022-07-25T13:57:38;99072.31;;;28.88
61703;BMP280;47622;47.726;3.298;2022-07-25T14:00:11;99073.59;;;28.96
61703;BMP280;47622;47.726;3.298;2022-07-25T14:02:49;99058.56;;;29.20
61703;BMP280;47622;47.726;3.298;2022-07-25T14:05:15;99056.53;;;29.11
61703;BMP280;47622;47.726;3.298;2022-07-25T14:07:42;99073.09;;;28.88
61703;BMP280;47622;47.726;3.298;2022-07-25T14:10:08;99063.88;;;29.11
61703;BMP280;47622;47.726;3.298;2022-07-25T14:12:35;99057.31;;;28.99
61703;BMP280;47622;47.726;3.298;2022-07-25T14:15:06;99079.84;;;29.31
61703;BMP280;47622;47.726;3.298;2022-07-25T14:17:33;99069.94;;;29.15
61703;BMP280;47622;47.726;3.298;2022-07-25T14:20:05;99074.69;;;28.86